Main page
METAR-TAF:

METAR-TAF

Airports :

Nakhon Ratchasima Airport

Nakhon Ratchasima, Thailand

latitude: 14-56-58N, longitude: 102-18-45E, elevation: 233 m

Current weather observation

The report was made 18 minutes ago, at 01:00 UTC
Wind 3 kt from variable directions
Temperature 30°C
Humidity 75%
Pressure 1012 hPa
Visibility: 6000 m

METAR: VTUQ 240100Z VRB03KT 6000 NSC 30/25 Q1012 NOSIG

Time: 08:18 (01:18 UTC)

Forecast

The report was made 2 hours and 18 minutes ago, at 23:00 UTC
Forecast valid from 24 at 00 UTC to 24 at 24 UTC
Wind 5 kt from the Southwest
Visibility: 6000 m
Becoming
from 24 at 04 UTC to 24 at 06 UTC
Visibility: 9000 m
Scattered clouds at a height of 3000 ft
Becoming
from 24 at 20 UTC to 24 at 22 UTC
Visibility: 6000 m

TAF: VTUQ 232300Z 2400/2424 23005KT 6000 NSC BECMG 2404/2406 9000 SCT030 BECMG 2420/2422 6000 NSC

Weather observations and forecasts of more than 4000 airports (METAR and TAF reports).

The available stations are represented by yellow and red dots on the map.

Hover mouse over dot to see the name of the station.

Then click to see weather observations and forecasts.

To change the map : click on the green buttons with a black cross to zoom in, on the green button with a dash to zoom out, or on the green arrows for adjacent maps.


METAR-TAF: